createdAt,value
2017-07-15T00:03:57.932Z,12.30
2017-07-15T00:08:59.698Z,22.50
2017-07-15T00:14:02.376Z,11.20
2017-07-15T00:19:04.860Z,6.30
2017-07-15T00:24:06.635Z,8.80
2017-07-15T00:29:08.405Z,9.93
2017-07-15T00:34:10.149Z,10.57
2017-07-15T00:39:12.687Z,11.83
2017-07-15T00:44:14.491Z,12.17
2017-07-15T00:49:16.288Z,10.07
2017-07-15T00:54:18.077Z,18.67
2017-07-15T00:59:20.486Z,11.80
2017-07-15T01:04:23.029Z,11.83
2017-07-15T01:09:25.263Z,12.33
2017-07-15T01:14:27.863Z,21.80
2017-07-15T01:19:30.051Z,19.73
2017-07-15T01:24:32.460Z,25.53
2017-07-15T01:29:34.252Z,15.33
2017-07-15T01:34:36.472Z,20.93
2017-07-15T01:39:38.794Z,11.30
2017-07-15T01:44:41.137Z,15.57
2017-07-15T01:49:43.259Z,13.43
2017-07-15T01:54:46.400Z,10.83
2017-07-15T01:59:49.859Z,22.70
2017-07-15T02:04:52.277Z,19.47
2017-07-15T02:09:54.399Z,18.43
2017-07-15T02:14:56.557Z,21.40
2017-07-15T02:19:58.912Z,16.40
2017-07-15T02:25:01.296Z,18.50
2017-07-15T02:30:03.788Z,8.70
2017-07-15T02:35:05.965Z,21.37
2017-07-15T02:40:08.391Z,9.50
2017-07-15T02:45:10.273Z,18.33
2017-07-15T02:50:12.639Z,17.87
2017-07-15T02:55:15.049Z,17.57
2017-07-15T03:00:17.349Z,23.47
2017-07-15T03:05:19.712Z,15.27
2017-07-15T03:10:23.899Z,18.73
2017-07-15T03:15:26.782Z,14.20
2017-07-15T03:20:29.178Z,13.80
2017-07-15T03:25:31.729Z,7.20
2017-07-15T03:30:37.128Z,13.57
2017-07-15T03:35:41.638Z,18.53
2017-07-15T03:40:48.943Z,15.60
2017-07-15T03:45:51.417Z,25.73
2017-07-15T03:50:53.842Z,10.30
2017-07-15T03:55:55.929Z,18.67
2017-07-15T04:00:57.679Z,19.17
2017-07-15T04:05:59.417Z,9.23
2017-07-15T04:11:01.316Z,20.93
2017-07-15T04:16:03.799Z,17.17
2017-07-15T04:21:09.624Z,9.43
2017-07-15T04:26:14.197Z,14.83
2017-07-15T04:31:17.862Z,23.57
2017-07-15T04:36:24.108Z,24.40
2017-07-15T04:41:26.090Z,18.67
2017-07-15T04:46:27.892Z,26.87
2017-07-15T04:51:29.671Z,14.37
2017-07-15T04:56:32.524Z,25.40
2017-07-15T05:01:34.326Z,21.50
2017-07-15T05:06:36.128Z,11.20
2017-07-15T05:11:38.191Z,18.70
2017-07-15T05:16:40.036Z,22.03
2017-07-15T05:21:42.892Z,16.13
2017-07-15T05:26:44.669Z,23.73
2017-07-15T05:31:46.428Z,24.97
2017-07-15T05:36:48.218Z,15.33
2017-07-15T05:41:50.035Z,11.43
2017-07-15T05:46:51.827Z,21.23
2017-07-15T05:51:53.655Z,11.60
2017-07-15T05:56:55.675Z,20.40
2017-07-15T06:02:00.477Z,14.43
2017-07-15T06:07:02.666Z,33.67
2017-07-15T06:12:04.424Z,14.20
2017-07-15T06:17:06.200Z,16.73
2017-07-15T06:22:08.264Z,17.60
2017-07-15T06:27:10.051Z,16.47
2017-07-15T06:32:11.801Z,14.83
2017-07-15T06:37:19.523Z,11.90
2017-07-15T06:42:21.675Z,9.27
2017-07-15T06:47:23.431Z,13.33
2017-07-15T06:52:25.317Z,16.53
2017-07-15T06:57:27.082Z,24.83
2017-07-15T07:02:29.574Z,8.57
2017-07-15T07:07:31.323Z,15.47
2017-07-15T07:12:33.040Z,9.53
2017-07-15T07:17:34.755Z,11.30
2017-07-15T07:22:36.443Z,8.27
2017-07-15T07:27:38.143Z,14.30
2017-07-15T07:32:40.615Z,11.07
2017-07-15T07:37:42.339Z,9.63
2017-07-15T07:42:44.075Z,10.63
2017-07-15T07:47:45.855Z,8.73
2017-07-15T07:52:47.586Z,5.70
2017-07-15T07:57:50.076Z,12.20
2017-07-15T08:02:51.853Z,6.97
2017-07-15T08:07:58.668Z,6.70
2017-07-15T08:13:02.101Z,7.13
2017-07-15T08:18:05.490Z,7.70
2017-07-15T08:23:07.328Z,11.60
2017-07-15T08:28:09.081Z,4.40
2017-07-15T08:33:15.210Z,8.73
2017-07-15T08:38:20.065Z,5.33
2017-07-15T08:43:22.056Z,7.27
2017-07-15T08:48:23.796Z,10.23
2017-07-15T08:53:28.251Z,6.47
2017-07-15T08:58:30.054Z,10.30
2017-07-15T09:03:32.084Z,8.93
2017-07-15T09:08:34.208Z,11.13
2017-07-15T09:13:37.318Z,5.50
2017-07-15T09:18:39.511Z,5.80
2017-07-15T09:23:41.380Z,6.47
2017-07-15T09:28:43.624Z,11.30
2017-07-15T09:33:46.528Z,5.57
2017-07-15T09:38:48.255Z,7.93
2017-07-15T09:43:50.039Z,6.30
2017-07-15T09:48:52.332Z,3.83
2017-07-15T09:53:54.362Z,4.83
2017-07-15T09:59:00.872Z,3.77
2017-07-15T10:04:03.095Z,8.20
2017-07-15T10:09:08.083Z,5.30
2017-07-15T10:14:10.129Z,6.30
2017-07-15T10:19:16.612Z,4.70
2017-07-15T10:24:20.822Z,6.70
2017-07-15T10:29:22.751Z,2.63
2017-07-15T10:34:28.269Z,7.27
2017-07-15T10:39:30.151Z,6.90
2017-07-15T10:44:34.444Z,8.63
2017-07-15T10:49:37.943Z,6.70
2017-07-15T10:54:43.176Z,6.57
2017-07-15T10:59:51.118Z,3.63
2017-07-15T11:04:53.887Z,4.60
2017-07-15T11:09:58.995Z,5.40
2017-07-15T11:15:00.820Z,3.13
2017-07-15T11:20:06.338Z,7.77
2017-07-15T11:25:08.267Z,7.37
2017-07-15T11:30:16.376Z,5.70
2017-07-15T11:35:18.388Z,10.37
2017-07-15T11:40:20.104Z,7.53
2017-07-15T11:45:22.642Z,4.20
2017-07-15T11:50:24.349Z,6.77
2017-07-15T11:55:26.068Z,7.60
2017-07-15T12:00:27.787Z,2.30
2017-07-15T12:05:30.236Z,8.50
2017-07-15T12:10:31.943Z,4.60
2017-07-15T12:15:36.086Z,7.03
2017-07-15T12:20:40.663Z,6.33
2017-07-15T12:25:42.881Z,3.67
2017-07-15T12:30:44.639Z,8.03
2017-07-15T12:35:46.392Z,12.80
2017-07-15T12:40:48.119Z,7.13
2017-07-15T12:45:49.960Z,7.77
2017-07-15T12:50:51.692Z,4.23
2017-07-15T12:55:53.399Z,3.87
2017-07-15T13:00:55.183Z,10.67
2017-07-15T13:05:56.880Z,27.13
2017-07-15T13:10:59.333Z,17.00
2017-07-15T13:16:01.046Z,5.80
2017-07-15T13:21:02.783Z,9.70
2017-07-15T13:26:04.524Z,25.77
2017-07-15T13:31:06.328Z,49.67
2017-07-15T13:36:08.789Z,24.73
2017-07-15T13:41:10.521Z,12.90
2017-07-15T13:46:12.997Z,32.03
2017-07-15T13:51:14.699Z,4.93
2017-07-15T13:56:16.967Z,5.53
2017-07-15T14:01:18.719Z,7.47
2017-07-15T14:06:20.448Z,2.83
2017-07-15T14:11:22.721Z,17.47
2017-07-15T14:16:25.208Z,9.20
2017-07-15T14:21:26.967Z,31.20
2017-07-15T14:26:29.487Z,31.60
2017-07-15T14:31:31.307Z,13.33
2017-07-15T14:36:33.048Z,7.83
2017-07-15T14:41:34.799Z,10.23
2017-07-15T14:46:36.533Z,5.90
2017-07-15T14:51:38.284Z,8.57
2017-07-15T14:56:40.013Z,5.53
2017-07-15T15:01:42.068Z,2.30
2017-07-15T15:06:43.822Z,4.83
2017-07-15T15:11:45.586Z,6.10
2017-07-15T15:16:48.051Z,6.83
2017-07-15T15:21:49.794Z,4.37
2017-07-15T15:26:52.237Z,1.53
2017-07-15T15:31:53.979Z,4.63
2017-07-15T15:36:55.700Z,3.47
2017-07-15T15:41:57.435Z,4.10
2017-07-15T15:46:59.172Z,4.73
2017-07-15T15:52:00.891Z,5.43
2017-07-15T15:57:02.672Z,2.23
2017-07-15T16:02:04.384Z,2.67
2017-07-15T16:07:06.109Z,3.63
2017-07-15T16:12:08.148Z,8.50
2017-07-15T16:17:09.894Z,3.33
2017-07-15T16:22:11.609Z,5.57
2017-07-15T16:27:13.634Z,7.77
2017-07-15T16:32:20.675Z,3.43
2017-07-15T16:37:22.502Z,1.73
2017-07-15T16:42:25.002Z,5.97
2017-07-15T16:47:26.743Z,4.63
2017-07-15T16:52:28.499Z,5.73
2017-07-15T16:57:30.247Z,6.43
2017-07-15T17:02:32.014Z,3.87
2017-07-15T17:07:33.759Z,5.50
2017-07-15T17:12:35.520Z,2.63
2017-07-15T17:17:38.022Z,3.90
2017-07-15T17:22:39.765Z,3.10
2017-07-15T17:27:42.649Z,4.03
2017-07-15T17:32:44.429Z,2.50
2017-07-15T17:37:46.224Z,9.10
2017-07-15T17:42:47.971Z,2.70
2017-07-15T17:47:49.744Z,2.50
2017-07-15T17:52:51.479Z,2.90
2017-07-15T17:57:53.224Z,3.90
2017-07-15T18:02:55.023Z,2.03
2017-07-15T18:07:56.779Z,4.17
2017-07-15T18:12:59.792Z,2.03
2017-07-15T18:18:01.842Z,4.17
2017-07-15T18:23:03.695Z,5.60
2017-07-15T18:28:05.580Z,2.23
2017-07-15T18:33:07.337Z,4.30
2017-07-15T18:38:09.066Z,4.40
2017-07-15T18:43:10.810Z,3.97
2017-07-15T18:48:13.514Z,4.73
2017-07-15T18:53:16.053Z,2.13
2017-07-15T18:58:17.783Z,2.03
2017-07-15T19:03:20.510Z,3.90
2017-07-15T19:08:22.234Z,3.80
2017-07-15T19:13:23.964Z,3.33
2017-07-15T19:18:25.736Z,6.83
2017-07-15T19:23:27.476Z,3.77
2017-07-15T19:28:29.233Z,4.00
2017-07-15T19:33:31.061Z,6.10
2017-07-15T19:38:32.832Z,2.30
2017-07-15T19:43:35.461Z,4.87
2017-07-15T19:48:37.238Z,4.40
2017-07-15T19:58:41.725Z,5.47
2017-07-15T20:03:44.501Z,3.67
2017-07-15T20:08:46.622Z,10.03
2017-07-15T20:13:48.790Z,3.93
2017-07-15T20:18:50.508Z,4.90
2017-07-15T20:23:52.277Z,2.80
2017-07-15T20:28:54.009Z,4.17
2017-07-15T20:33:56.502Z,3.00
2017-07-15T20:38:58.223Z,2.17
2017-07-15T20:44:00.703Z,3.97
2017-07-15T20:49:03.088Z,5.70
2017-07-15T20:54:09.884Z,3.53
2017-07-15T20:59:11.615Z,6.70
2017-07-15T21:04:13.366Z,7.03
2017-07-15T21:09:15.120Z,4.90
2017-07-15T21:14:16.854Z,4.87
2017-07-15T21:19:18.596Z,5.57
2017-07-15T21:24:20.447Z,9.73
2017-07-15T21:29:22.181Z,7.73
2017-07-15T21:34:23.995Z,2.83
2017-07-15T21:39:25.727Z,4.63
2017-07-15T21:44:27.536Z,14.63
2017-07-15T21:49:30.054Z,2.00
2017-07-15T21:54:31.816Z,3.23
2017-07-15T21:59:33.668Z,3.67
2017-07-15T22:04:36.208Z,5.27
2017-07-15T22:09:37.980Z,4.33
2017-07-15T22:14:39.754Z,2.60
2017-07-15T22:19:41.485Z,4.80
2017-07-15T22:24:43.266Z,7.90
2017-07-15T22:29:45.096Z,4.30
2017-07-15T22:34:46.938Z,5.83
2017-07-15T22:39:48.828Z,12.07
2017-07-15T22:44:50.967Z,5.53
2017-07-15T22:49:52.791Z,5.83
2017-07-15T22:54:54.561Z,7.30
2017-07-15T22:59:56.368Z,13.07
2017-07-15T23:04:58.223Z,5.13
2017-07-15T23:10:00.061Z,7.40
2017-07-15T23:15:01.895Z,7.23
2017-07-15T23:20:03.726Z,8.93
2017-07-15T23:25:05.660Z,7.67
2017-07-15T23:30:07.762Z,5.80
2017-07-15T23:35:09.582Z,7.93
2017-07-15T23:40:11.426Z,7.63
2017-07-15T23:45:13.279Z,9.40
2017-07-15T23:50:15.067Z,5.73
2017-07-15T23:55:16.899Z,16.93
